YMD weather

CLOSED Mould Bay Airport
Prince Patrick Is., Northwest Territories, Canada

Public forecast

Using degrees Celsius for public forecast. Weather courtesy of forecast.io.

METAR (pilot weather report)

Closest report is Resolute Bay Airport, 374.9 nm (694.3 km) E. Retrieved 2019/04/19 23:00 UTC (1 hour ago):

CYRB 192300Z 29002KT 15SM IC FEW050 M27/M31 A2987 RMK SC2 SLP129

TAF (pilot weather forecast)

Forecast is more than 12 hours old.

Closest forecast is Resolute Bay Airport, 374.9 nm (694.3 km) E. Retrieved 2019/04/19 00:44 UTC (24 hours ago):

TAF CYRB 192341Z 2000/2024 VRB03KT P6SM FEW050 BECMG 2004/2006 02010KT FM202000 30010KT P6SM BKN020 RMK NXT FCST BY 200600Z